Latest Weather Observations for Cape Byron

IDN60801

Issued at 10:03 pm EST Thursday 28 July 2016 (issued every 30 minutes, with the page automatically refreshed every 10 minutes)

About weather observations | Map of weather stations | Latest weather observations for NSW | Other Formats
Station Details ID: 058216 Name: CAPE BYRON AWS Lat: -28.64 Lon: 153.64 Height: 95.0 m
Data from the previous 72 hours. | See also: Recent months at Cape Byron
Date/Time
EST
Temp
°C
App
Temp
°C
Dew
Point
°C
Rel
Hum
%
Delta-T
°C
Wind Press
QNH
hPa
Press
MSL
hPa
Rain since
9am
mm
Dir  Spd
km/h
Gust
km/h
Spd
kts
Gust
kts
28/10:00pm 13.9 11.2 10.5 80 1.8 WNW 15 17 8 9 1023.3 1023.2 0.0
28/09:30pm 13.8 10.9 9.6 76 2.2 WNW 15 17 8 9 1023.4 1023.3 0.0
28/09:00pm 14.3 11.9 9.9 75 2.3 NW 13 15 7 8 1023.5 1023.4 0.0
28/08:30pm 14.2 11.3 9.8 75 2.3 WNW 15 17 8 9 1023.4 1023.3 0.0
28/08:00pm 14.8 12.7 9.8 72 2.6 NW 11 15 6 8 1023.4 1023.3 0.0
28/07:30pm 15.4 13.6 9.3 67 3.2 N 9 11 5 6 1023.4 1023.3 0.0
28/07:00pm 16.5 14.9 8.7 60 4.0 ENE 7 9 4 5 1023.2 1023.1 0.0
28/06:30pm 16.5 14.6 9.2 62 3.8 E 9 13 5 7 1023.1 1023.0 0.0
28/06:00pm 16.7 14.4 8.9 60 4.0 ESE 11 13 6 7 1023.0 1022.9 0.0
28/05:30pm 16.9 14.3 9.3 61 4.0 ESE 13 17 7 9 1022.9 1022.8 0.0
28/05:00pm 17.1 14.0 10.2 64 3.7 ESE 17 20 9 11 1022.7 1022.6 0.0
28/04:30pm 17.1 13.8 9.5 61 4.0 ESE 17 22 9 12 1022.6 1022.5 0.0
28/04:00pm 17.5 14.3 10.1 62 3.9 SE 17 22 9 12 1022.5 1022.4 0.0
28/03:30pm 17.6 14.0 9.8 60 4.1 SSE 19 24 10 13 1022.7 1022.6 0.0
28/03:00pm 17.5 13.8 9.4 59 4.2 SSE 19 24 10 13 1022.6 1022.5 0.0
28/02:30pm 17.6 13.5 10.0 61 4.0 S 22 26 12 14 1022.7 1022.6 0.0
28/02:00pm 17.6 13.3 9.5 59 4.2 S 22 28 12 15 1022.7 1022.6 0.0
28/01:30pm 17.6 12.8 8.7 56 4.6 S 24 30 13 16 1022.8 1022.7 0.0
28/01:00pm 17.6 12.4 8.7 56 4.6 S 26 30 14 16 1023.1 1023.0 0.0
28/12:30pm 17.5 12.7 7.3 51 5.1 S 22 26 12 14 1023.3 1023.2 0.0
28/12:00pm 17.9 13.3 6.4 47 5.7 SSW 20 28 11 15 1023.7 1023.6 0.0
28/11:30am 17.4 12.8 6.3 48 5.5 SSW 20 30 11 16 1024.0 1023.9 0.0
28/11:00am 16.7 11.1 5.6 48 5.3 SW 24 35 13 19 1024.3 1024.2 0.0
28/10:30am 16.0 10.0 5.3 49 5.1 SW 26 35 14 19 1024.5 1024.4 0.0
28/10:00am 15.3 9.6 4.7 49 5.0 SW 24 35 13 19 1024.3 1024.2 0.0
28/09:30am 14.7 8.8 3.8 48 5.0 SW 24 30 13 16 1024.3 1024.2 0.0
28/09:00am 14.2 7.4 3.1 47 5.0 SW 28 39 15 21 1024.1 1024.0 0.0
28/08:30am 13.6 6.9 3.4 50 4.6 SW 28 35 15 19 1023.8 1023.7 0.0
28/08:00am 12.9 6.1 3.0 51 4.4 WSW 28 39 15 21 1023.7 1023.6 0.0
28/07:30am 12.7 5.4 2.6 50 4.4 WSW 30 39 16 21 1023.4 1023.3 0.0
28/07:00am 12.6 5.3 2.7 51 4.3 WSW 30 37 16 20 1023.0 1022.9 0.0
28/06:30am 12.6 5.7 2.5 50 4.4 WSW 28 35 15 19 1022.5 1022.4 0.0
28/06:00am 12.5 5.3 2.9 52 4.2 WSW 30 37 16 20 1022.2 1022.1 0.0
28/05:30am 12.5 5.3 2.9 52 4.2 WSW 30 41 16 22 1021.8 1021.7 0.0
28/05:00am 12.8 5.5 2.6 50 4.5 WSW 30 39 16 21 1021.4 1021.3 0.0
28/04:30am 13.0 6.1 2.6 49 4.6 WSW 28 37 15 20 1021.1 1021.0 0.0
28/04:00am 13.2 6.3 2.7 49 4.6 WSW 28 39 15 21 1021.0 1020.9 0.0
28/03:30am 13.6 6.3 2.5 47 4.9 WSW 30 39 16 21 1021.0 1020.9 0.0
28/03:00am 13.4 6.5 2.3 47 4.9 WSW 28 37 15 20 1021.0 1020.9 0.0
28/02:30am 13.4 6.8 2.3 47 4.9 WSW 26 35 14 19 1021.0 1020.9 0.0
28/02:00am 13.3 6.0 2.5 48 4.7 WSW 30 35 16 19 1021.1 1021.0 0.0
28/01:30am 13.5 6.6 2.4 47 4.9 WSW 28 39 15 21 1021.3 1021.2 0.0
28/01:00am 13.5 6.6 2.7 48 4.8 WSW 28 37 15 20 1021.4 1021.3 0.0
28/12:30am 13.8 6.1 2.4 46 5.0 WSW 32 37 17 20 1021.3 1021.2 0.0
28/12:00am 14.1 6.4 2.4 45 5.2 WSW 32 39 17 21 1021.0 1020.9 0.0
 
Date/Time
EST
Temp
°C
App
Temp
°C
Dew
Point
°C
Rel
Hum
%
Delta-T
°C
Wind Press
QNH
hPa
Press
MSL
hPa
Rain since
9am
mm
Dir  Spd
km/h
Gust
km/h
Spd
kts
Gust
kts
27/11:30pm 14.2 6.5 2.5 45 5.2 WSW 32 43 17 23 1020.7 1020.6 0.0
27/11:00pm 14.8 6.9 2.4 43 5.5 WSW 33 41 18 22 1020.5 1020.4 0.0
27/10:30pm 14.8 7.2 2.7 44 5.4 WSW 32 39 17 21 1020.6 1020.5 0.0
27/10:00pm 14.5 6.9 3.0 46 5.2 WSW 32 41 17 22 1020.5 1020.4 0.0
27/09:30pm 15.1 7.9 3.0 44 5.5 W 30 37 16 20 1020.2 1020.1 0.0
27/09:00pm 15.3 8.9 3.1 44 5.5 W 26 35 14 19 1020.1 1020.0 0.0
27/08:30pm 16.2 9.4 2.9 41 6.1 W 28 35 15 19 1019.9 1019.8 0.0
27/08:00pm 16.4 9.2 3.1 41 6.1 W 30 37 16 20 1019.6 1019.5 0.0
27/07:30pm 15.5 10.9 5.4 51 4.8 WNW 19 24 10 13 1019.3 1019.2 0.0
27/07:00pm 14.8 11.8 6.1 56 4.2 NW 11 17 6 9 1018.8 1018.7 0.0
27/06:30pm 16.5 14.5 6.9 53 4.8 NNW 7 11 4 6 1018.3 1018.2 0.0
27/06:00pm 17.0 13.5 5.3 46 5.6 NNW 13 17 7 9 1017.7 1017.6 0.0
27/05:30pm 17.0 13.4 5.0 45 5.8 N 13 17 7 9 1017.3 1017.2 0.0
27/05:00pm 17.6 14.6 3.9 40 6.4 N 9 13 5 7 1017.1 1017.0 0.0
27/04:30pm 18.0 15.2 5.2 43 6.2 N 9 11 5 6 1016.8 1016.7 0.0
27/04:00pm 18.1 15.1 4.3 40 6.6 N 9 13 5 7 1016.5 1016.4 0.0
27/03:30pm 17.6 14.7 4.6 42 6.2 NW 9 15 5 8 1015.9 1015.8 0.0
27/03:00pm 17.4 12.5 4.0 41 6.3 W 19 28 10 15 1016.0 1016.0 0.0
27/02:30pm 17.7 11.9 4.3 41 6.4 WNW 24 39 13 21 1015.9 1015.8 0.0
27/02:00pm 17.0 11.0 3.3 40 6.3 WNW 24 33 13 18 1016.0 1016.0 0.0
27/01:30pm 17.2 12.5 3.1 39 6.5 WNW 17 30 9 16 1015.9 1015.8 0.0
27/01:00pm 16.8 12.3 4.2 43 5.9 W 17 28 9 15 1016.4 1016.3 0.0
27/12:30pm 16.8 12.0 2.8 39 6.4 W 17 28 9 15 1016.9 1016.8 0.0
27/12:00pm 17.0 12.8 3.7 41 6.2 W 15 24 8 13 1017.3 1017.2 0.0
27/11:30am 16.7 10.5 2.0 37 6.6 W 24 33 13 18 1017.5 1017.4 0.0
27/11:00am 16.8 10.9 2.0 37 6.6 WSW 22 32 12 17 1017.9 1017.8 0.0
27/10:30am 16.7 9.6 1.2 35 6.9 W 28 43 15 23 1018.1 1018.0 0.0
27/10:00am 16.1 8.1 0.3 34 6.8 W 32 41 17 22 1017.8 1017.7 0.0
27/09:30am 15.9 9.4 0.5 35 6.7 W 24 41 13 22 1017.8 1017.7 0.0
27/09:00am 15.6 8.3 0.2 35 6.6 W 28 39 15 21 1018.0 1017.9 0.0
27/08:30am 15.3 7.9 -0.9 33 6.8 W 28 37 15 20 1017.6 1017.5 0.0
27/08:00am 15.1 8.1 -0.2 35 6.5 W 26 33 14 18 1017.8 1017.7 0.0
27/07:30am 15.0 10.7 0.8 38 6.1 WSW 13 19 7 10 1017.9 1017.8 0.0
27/07:00am 15.5 9.8 -0.7 33 6.8 NW 19 30 10 16 1017.6 1017.5 0.0
27/06:30am 15.7 9.8 -0.5 33 6.8 WNW 20 32 11 17 1017.4 1017.3 0.0
27/06:00am 16.2 8.7 -1.4 30 7.3 W 28 35 15 19 1016.7 1016.6 0.0
27/05:30am 16.2 9.5 -0.9 31 7.2 W 24 30 13 16 1016.6 1016.5 0.0
27/05:00am 15.9 8.6 0.1 34 6.8 W 28 39 15 21 1016.3 1016.2 0.0
27/04:30am 15.5 9.6 2.0 40 6.0 WNW 22 30 12 16 1016.3 1016.2 0.0
27/04:00am 15.6 9.0 2.1 40 6.0 W 26 39 14 21 1016.3 1016.2 0.0
27/03:30am 15.1 10.5 3.6 46 5.3 WNW 17 28 9 15 1015.9 1015.8 0.0
27/03:00am 15.4 11.5 3.2 44 5.6 WNW 13 22 7 12 1016.5 1016.4 0.0
27/02:30am 14.3 10.1 5.9 57 4.0 WSW 17 20 9 11 1016.4 1016.3 0.0
27/02:00am 15.1 11.8 4.8 50 4.8 WNW 11 17 6 9 1016.6 1016.5 0.0
27/01:30am 15.1 11.5 5.0 51 4.8 WNW 13 17 7 9 1016.7 1016.6 0.0
27/01:00am 16.0 13.0 4.1 45 5.5 W 9 24 5 13 1016.4 1016.3 0.0
27/12:30am 17.1 12.3 2.7 38 6.6 WNW 17 20 9 11 1015.9 1015.8 0.0
27/12:00am 17.4 12.0 2.6 37 6.8 W 20 26 11 14 1016.5 1016.4 0.0
 
Date/Time
EST
Temp
°C
App
Temp
°C
Dew
Point
°C
Rel
Hum
%
Delta-T
°C
Wind Press
QNH
hPa
Press
MSL
hPa
Rain since
9am
mm
Dir  Spd
km/h
Gust
km/h
Spd
kts
Gust
kts
26/11:30pm 15.7 11.9 5.6 51 4.9 WNW 15 20 8 11 1016.4 1016.3 0.0
26/11:00pm 15.0 12.7 10.4 74 2.4 WNW 13 22 7 12 1016.9 1016.8 0.0
26/10:30pm 15.8 12.8 7.8 59 4.0 NNW 13 19 7 10 1016.6 1016.5 0.0
26/10:00pm 15.2 12.5 9.1 67 3.1 NW 13 15 7 8 1017.2 1017.1 0.0
26/09:30pm 15.5 12.5 7.8 60 3.9 NNW 13 17 7 9 1017.1 1017.0 0.0
26/09:00pm 16.0 14.6 9.4 65 3.4 NW 7 9 4 5 1017.2 1017.1 0.0
26/08:30pm 17.1 13.7 7.7 54 4.8 N 15 20 8 11 1017.1 1017.0 0.0
26/08:00pm 17.1 15.1 8.5 57 4.4 N 9 15 5 8 1016.9 1016.8 0.0
26/07:30pm 17.1 13.9 8.3 56 4.5 N 15 19 8 10 1016.9 1016.8 0.0
26/07:00pm 17.1 14.1 9.3 60 4.1 NNE 15 22 8 12 1016.6 1016.5 0.0
26/06:30pm 17.0 14.2 9.9 63 3.8 NNE 15 20 8 11 1016.4 1016.3 0.0
26/06:00pm 17.0 13.8 9.9 63 3.7 NNE 17 24 9 13 1015.8 1015.7 0.0
26/05:30pm 17.1 13.3 9.8 62 3.9 N 20 30 11 16 1016.1 1016.1 0.0
26/05:00pm 17.3 13.7 10.7 65 3.5 N 20 28 11 15 1015.9 1015.8 0.0
26/04:30pm 17.4 14.4 10.5 64 3.7 NNE 17 26 9 14 1015.7 1015.6 0.0
26/04:00pm 17.4 14.3 10.3 63 3.8 NNE 17 22 9 12 1015.8 1015.7 0.0
26/03:30pm 17.7 15.1 10.8 64 3.7 NNE 15 20 8 11 1015.8 1015.7 0.0
26/03:00pm 17.8 14.8 9.4 58 4.4 NNE 15 20 8 11 1016.0 1016.0 0.0
26/02:30pm 18.3 14.8 8.8 54 5.0 NE 17 24 9 13 1016.1 1016.1 0.0
26/02:00pm 18.5 14.9 8.2 51 5.3 NNE 17 24 9 13 1016.4 1016.3 0.0
26/01:30pm 18.9 15.6 8.0 49 5.6 NNE 15 19 8 10 1016.8 1016.7 0.0
26/01:00pm 18.7 15.7 7.5 48 5.7 NNE 13 19 7 10 1017.1 1017.0 0.0
26/12:30pm 19.8 17.1 7.5 45 6.3 N 11 15 6 8 1017.6 1017.5 0.0
26/12:00pm 20.2 17.2 4.3 35 7.7 N 9 13 5 7 1017.9 1017.8 0.0
26/11:30am 19.9 17.3 4.0 35 7.6 N 7 13 4 7 1018.5 1018.4 0.0
26/11:00am 18.5 15.5 3.9 38 6.9 WNW 9 15 5 8 1018.9 1018.8 0.0
26/10:30am 16.8 12.7 4.2 43 5.9 WSW 15 22 8 12 1018.8 1018.7 0.0
26/10:00am 15.7 10.6 2.8 42 5.8 WSW 19 24 10 13 1019.2 1019.1 0.0
26/09:30am 15.0 9.7 2.9 44 5.5 W 20 28 11 15 1019.6 1019.5 0.0
26/09:00am 13.8 7.6 2.4 46 5.0 W 24 32 13 17 1019.3 1019.2 0.0
26/08:30am 13.3 6.2 1.3 44 5.2 W 28 39 15 21 1019.1 1019.0 0.0
26/08:00am 13.1 6.0 1.1 44 5.1 WSW 28 39 15 21 1018.9 1018.8 0.0
26/07:30am 13.3 5.7 0.7 42 5.3 WSW 30 37 16 20 1018.7 1018.6 0.0
26/07:00am 13.4 6.2 0.4 41 5.5 WSW 28 35 15 19 1018.3 1018.2 0.0
26/06:30am 13.3 6.0 0.3 41 5.5 W 28 35 15 19 1017.9 1017.8 0.0
26/06:00am 13.0 5.9 1.4 45 5.0 W 28 37 15 20 1017.8 1017.7 0.0
26/05:30am 13.2 5.7 1.5 45 5.0 WSW 30 41 16 22 1017.4 1017.3 0.0
26/05:00am 13.6 5.7 1.3 43 5.3 WSW 32 41 17 22 1017.2 1017.1 0.0
26/04:30am 14.1 6.5 0.4 39 5.8 WSW 30 35 16 19 1017.1 1017.0 0.0
26/04:00am 14.0 6.5 1.0 41 5.6 W 30 39 16 21 1017.0 1016.9 0.0
26/03:30am 14.0 7.6 1.0 41 5.6 W 24 32 13 17 1016.9 1016.8 0.0
26/03:00am 14.6 7.2 -0.7 35 6.4 W 28 35 15 19 1016.9 1016.8 0.0
26/02:30am 13.8 8.4 2.4 46 5.0 W 20 26 11 14 1017.3 1017.2 0.0
26/02:00am 13.6 8.5 3.1 49 4.7 WNW 19 26 10 14 1017.5 1017.4 0.0
26/01:30am 13.7 8.7 3.5 50 4.6 WNW 19 26 10 14 1017.6 1017.5 0.0
26/01:00am 13.3 9.3 5.0 57 3.9 NW 15 20 8 11 1017.7 1017.6 0.0
26/12:30am 13.6 8.7 4.2 53 4.3 WNW 19 24 10 13 1018.0 1017.9 0.0
26/12:00am 13.7 9.4 5.1 56 4.0 WNW 17 22 9 12 1018.1 1018.0 0.0
 
Date/Time
EST
Temp
°C
App
Temp
°C
Dew
Point
°C
Rel
Hum
%
Delta-T
°C
Wind Press
QNH
hPa
Press
MSL
hPa
Rain since
9am
mm
Dir  Spd
km/h
Gust
km/h
Spd
kts
Gust
kts
25/11:30pm 14.4 9.4 3.8 49 4.9 W 19 28 10 15 1017.9 1017.8 0.0
25/11:00pm 14.7 9.3 4.4 50 4.8 WNW 22 30 12 16 1017.7 1017.6 0.0
25/10:30pm 14.5 10.2 5.3 54 4.4 WNW 17 24 9 13 1017.9 1017.8 0.0

Other Formats:

Comma delimited format used in spreadsheet applications
http://www.bom.gov.au/fwo/IDN60801/IDN60801.94599.axf

JavaScript Object Notation format (JSON) in row-major order
http://www.bom.gov.au/fwo/IDN60801/IDN60801.94599.json